Time;durP1;ratioP1;P1;durP2;ratioP2;P2;SDS_P1;SDS_P2;PMS_P1;PMS_P2;Temp;Humidity;BMP_temperature;BMP_pressure;BME280_temperature;BME280_humidity;BME280_pressure;Samples;Min_cycle;Max_cycle;Signal;HPM_P1;HPM_P2
2022/10/07 00:01:45;;;;;;;;;;;9.10;99.90;;;;;;4229230;28;19908;-58
2022/10/07 00:03:46;;;;;;;;;;;9.10;99.90;;;;;;4228400;28;19904;-62
2022/10/07 00:05:58;;;;;;;;;;;9.10;99.90;;;;;;4242945;27;19915;-60
2022/10/07 00:07:59;;;;;;;;;;;9.10;99.90;;;;;;4245426;27;20347;-62
2022/10/07 00:10:00;;;;;;;;;;;9.10;99.90;;;;;;4245716;27;19915;-61
2022/10/07 00:12:01;;;;;;;;;;;9.10;99.90;;;;;;4245671;27;19948;-61
2022/10/07 00:14:03;;;;;;;;;;;9.10;99.90;;;;;;4245361;27;19915;-62
2022/10/07 00:16:08;;;;;;;;;;;9.10;99.90;;;;;;4245629;27;19933;-61
2022/10/07 00:18:09;;;;;;;;;;;9.10;99.90;;;;;;4244950;27;19971;-61
2022/10/07 00:20:10;;;;;;;;;;;9.10;99.90;;;;;;4244263;27;19937;-61
2022/10/07 00:22:11;;;;;;;;;;;9.10;99.90;;;;;;4244955;27;19918;-60
2022/10/07 00:24:14;;;;;;;;;;;9.10;99.90;;;;;;4245830;27;19936;-61
2022/10/07 00:26:17;;;;;;;;;;;9.10;99.90;;;;;;4233701;27;19984;-62
2022/10/07 00:28:17;;;;;;;;;;;9.10;99.90;;;;;;4229039;28;19907;-60
2022/10/07 00:30:18;;;;;;;;;;;9.10;99.90;;;;;;4232110;27;19911;-62
2022/10/07 00:32:19;;;;;;;;;;;9.10;99.90;;;;;;4245993;27;19907;-61
2022/10/07 00:34:20;;;;;;;;;;;9.00;99.90;;;;;;4244714;27;19994;-61
2022/10/07 00:36:22;;;;;;;;;;;9.00;99.90;;;;;;4234018;27;19912;-61
2022/10/07 00:38:24;;;;;;;;;;;9.00;99.90;;;;;;4228015;28;19957;-61
2022/10/07 00:40:24;;;;;;;;;;;9.00;99.90;;;;;;4228504;28;19923;-61
2022/10/07 00:42:25;;;;;;;;;;;9.00;99.90;;;;;;4228306;28;19912;-62
2022/10/07 00:44:47;;;;;;;;;;;8.90;99.90;;;;;;4228289;28;19957;-61
2022/10/07 00:46:48;;;;;;;;;;;8.90;99.90;;;;;;4228213;28;19972;-60
2022/10/07 00:48:49;;;;;;;;;;;8.90;99.90;;;;;;4230088;28;19916;-62
2022/10/07 00:50:51;;;;;;;;;;;8.90;99.90;;;;;;4230092;28;19961;-61
2022/10/07 00:53:00;;;;;;;;;;;8.90;99.90;;;;;;4228007;28;19912;-61
2022/10/07 00:55:03;;;;;;;;;;;8.80;99.90;;;;;;4228692;28;19953;-61
2022/10/07 00:57:04;;;;;;;;;;;8.80;99.90;;;;;;4227615;28;19912;-62
2022/10/07 00:59:05;;;;;;;;;;;8.80;99.90;;;;;;4228490;28;19912;-61
2022/10/07 01:01:06;;;;;;;;;;;8.80;99.90;;;;;;4226983;28;19923;-61
2022/10/07 01:03:07;;;;;;;;;;;8.80;99.90;;;;;;4228667;28;20249;-61
2022/10/07 01:05:09;;;;;;;;;;;8.70;99.90;;;;;;4227846;28;19914;-61
2022/10/07 01:07:10;;;;;;;;;;;8.80;99.90;;;;;;4230009;28;20310;-61
2022/10/07 01:09:11;;;;;;;;;;;8.70;99.90;;;;;;4244612;28;19918;-60
2022/10/07 01:11:12;;;;;;;;;;;8.70;99.90;;;;;;4245649;28;19907;-61
2022/10/07 01:13:18;;;;;;;;;;;8.60;99.90;;;;;;4244001;27;19911;-60
2022/10/07 01:15:51;;;;;;;;;;;8.60;99.90;;;;;;4245669;28;19911;-63
2022/10/07 01:17:55;;;;;;;;;;;8.60;99.90;;;;;;4165406;28;19985;-65
2022/10/07 01:20:02;;;;;;;;;;;8.60;99.90;;;;;;4211709;28;19915;-62
2022/10/07 01:22:11;;;;;;;;;;;8.60;99.90;;;;;;4210693;28;19912;-61
2022/10/07 01:24:13;;;;;;;;;;;8.60;99.90;;;;;;4211942;28;19912;-61
2022/10/07 01:26:21;;;;;;;;;;;8.60;99.90;;;;;;4210680;28;19909;-61
2022/10/07 01:28:25;;;;;;;;;;;8.50;99.90;;;;;;4211726;28;20356;-62
2022/10/07 01:30:29;;;;;;;;;;;8.50;99.90;;;;;;4221608;28;19919;-60
2022/10/07 01:32:39;;;;;;;;;;;8.50;99.90;;;;;;4228320;28;20333;-62
2022/10/07 01:34:41;;;;;;;;;;;8.50;99.90;;;;;;4227369;28;19925;-61
2022/10/07 01:36:43;;;;;;;;;;;8.50;99.90;;;;;;4230040;28;19912;-62
2022/10/07 01:38:48;;;;;;;;;;;8.50;99.90;;;;;;4230898;28;19954;-61
2022/10/07 01:40:53;;;;;;;;;;;8.40;99.90;;;;;;4231002;28;19920;-63
2022/10/07 01:42:54;;;;;;;;;;;8.50;99.90;;;;;;4234150;27;19937;-61
2022/10/07 01:44:56;;;;;;;;;;;8.50;99.90;;;;;;4247645;27;20325;-63
2022/10/07 01:46:57;;;;;;;;;;;8.50;99.90;;;;;;4247861;27;20324;-61
2022/10/07 01:48:58;;;;;;;;;;;8.40;99.90;;;;;;4245858;27;19912;-62
2022/10/07 01:51:01;;;;;;;;;;;8.40;99.90;;;;;;4246482;27;19965;-62
2022/10/07 01:53:02;;;;;;;;;;;8.40;99.90;;;;;;4233799;27;19969;-61
2022/10/07 01:55:14;;;;;;;;;;;8.40;99.90;;;;;;4232447;27;20409;-61
2022/10/07 01:57:28;;;;;;;;;;;8.40;99.90;;;;;;4230221;28;20012;-61
2022/10/07 01:59:44;;;;;;;;;;;8.30;99.90;;;;;;4231371;28;19912;-61
2022/10/07 02:01:48;;;;;;;;;;;8.30;99.90;;;;;;4230124;28;19924;-61
2022/10/07 02:03:49;;;;;;;;;;;8.40;99.90;;;;;;4231117;28;19957;-61
2022/10/07 02:05:54;;;;;;;;;;;8.40;99.90;;;;;;4230309;28;19961;-61
2022/10/07 02:08:14;;;;;;;;;;;8.40;99.90;;;;;;4231412;28;19924;-62
2022/10/07 02:10:19;;;;;;;;;;;8.40;99.90;;;;;;4242610;27;20483;-62
2022/10/07 02:12:28;;;;;;;;;;;8.40;99.90;;;;;;4248236;27;20372;-62
2022/10/07 02:14:35;;;;;;;;;;;8.40;99.90;;;;;;4247115;27;20305;-61
2022/10/07 02:16:39;;;;;;;;;;;8.40;99.90;;;;;;4247708;27;19911;-61
2022/10/07 02:18:42;;;;;;;;;;;8.30;99.90;;;;;;4246927;27;19956;-62
2022/10/07 02:20:45;;;;;;;;;;;8.30;99.90;;;;;;4247982;27;19984;-61
2022/10/07 02:22:48;;;;;;;;;;;8.20;99.90;;;;;;4245439;27;19952;-62
2022/10/07 02:24:51;;;;;;;;;;;8.20;99.90;;;;;;4247973;27;19912;-60
2022/10/07 02:26:52;;;;;;;;;;;8.20;99.90;;;;;;4244977;27;20287;-60
2022/10/07 02:28:55;;;;;;;;;;;8.20;99.90;;;;;;4247906;27;20312;-61
2022/10/07 02:30:59;;;;;;;;;;;8.10;99.90;;;;;;4244910;27;20424;-59
2022/10/07 02:33:02;;;;;;;;;;;8.20;99.90;;;;;;4247366;27;20328;-59
2022/10/07 02:35:05;;;;;;;;;;;8.10;99.90;;;;;;4246863;27;20321;-60
2022/10/07 02:37:11;;;;;;;;;;;8.10;99.90;;;;;;4230823;27;19961;-61
2022/10/07 02:39:12;;;;;;;;;;;8.10;99.90;;;;;;4230093;28;19911;-59
2022/10/07 02:41:12;;;;;;;;;;;8.20;99.90;;;;;;4229938;28;19984;-60
2022/10/07 02:43:27;;;;;;;;;;;8.10;99.90;;;;;;4230194;28;20034;-61
2022/10/07 02:45:44;;;;;;;;;;;8.10;99.90;;;;;;4229811;28;19912;-60
2022/10/07 02:47:50;;;;;;;;;;;8.10;99.90;;;;;;4229543;28;19911;-61
2022/10/07 02:49:52;;;;;;;;;;;8.10;99.90;;;;;;4229558;28;19916;-61
2022/10/07 02:52:01;;;;;;;;;;;8.10;99.90;;;;;;4230179;28;19907;-62
2022/10/07 02:54:03;;;;;;;;;;;8.10;99.90;;;;;;4228487;28;20385;-62
2022/10/07 02:56:04;;;;;;;;;;;8.10;99.90;;;;;;4243148;27;19915;-63
2022/10/07 02:58:06;;;;;;;;;;;8.00;99.90;;;;;;4244344;27;19911;-61
2022/10/07 03:00:08;;;;;;;;;;;8.00;99.90;;;;;;4247132;27;19979;-62
2022/10/07 03:02:15;;;;;;;;;;;8.00;99.90;;;;;;4246237;27;19964;-60
2022/10/07 03:04:17;;;;;;;;;;;8.10;99.90;;;;;;4235516;27;19916;-60
2022/10/07 03:06:18;;;;;;;;;;;8.10;99.90;;;;;;4229710;28;19912;-60
2022/10/07 03:08:20;;;;;;;;;;;8.10;99.90;;;;;;4230317;27;20434;-60
2022/10/07 03:10:21;;;;;;;;;;;8.20;99.90;;;;;;4229514;28;20308;-60
2022/10/07 03:12:22;;;;;;;;;;;8.10;99.90;;;;;;4230197;28;19912;-58
2022/10/07 03:14:23;;;;;;;;;;;8.10;99.90;;;;;;4228985;28;20371;-61
2022/10/07 03:16:24;;;;;;;;;;;8.10;99.90;;;;;;4229953;28;19915;-59
2022/10/07 03:18:27;;;;;;;;;;;8.10;99.90;;;;;;4228867;28;19919;-59
2022/10/07 03:20:29;;;;;;;;;;;8.10;99.90;;;;;;4229715;28;19945;-62
2022/10/07 03:22:29;;;;;;;;;;;8.10;99.90;;;;;;4229229;28;19957;-60
2022/10/07 03:24:30;;;;;;;;;;;8.00;99.90;;;;;;4229411;28;20363;-61
2022/10/07 03:26:32;;;;;;;;;;;8.00;99.90;;;;;;4229433;28;19916;-61
2022/10/07 03:28:36;;;;;;;;;;;8.10;99.90;;;;;;4228324;28;19937;-61
2022/10/07 03:30:36;;;;;;;;;;;8.10;99.90;;;;;;4230721;27;19908;-62
2022/10/07 03:32:38;;;;;;;;;;;8.10;99.90;;;;;;4243773;27;19915;-60
2022/10/07 03:34:39;;;;;;;;;;;8.00;99.90;;;;;;4229696;28;19933;-60
2022/10/07 03:36:40;;;;;;;;;;;8.00;99.90;;;;;;4228909;28;19977;-57
2022/10/07 03:38:41;;;;;;;;;;;7.90;99.90;;;;;;4229860;28;19909;-57
2022/10/07 03:40:44;;;;;;;;;;;7.90;99.90;;;;;;4232578;27;20423;-61
2022/10/07 03:42:45;;;;;;;;;;;7.80;99.90;;;;;;4239864;27;19916;-60
2022/10/07 03:44:48;;;;;;;;;;;7.80;99.90;;;;;;4228253;28;19912;-61
2022/10/07 03:46:49;;;;;;;;;;;7.70;99.90;;;;;;4229214;28;19965;-60
2022/10/07 03:48:51;;;;;;;;;;;7.70;99.90;;;;;;4228040;28;19981;-60
2022/10/07 03:50:53;;;;;;;;;;;7.70;99.90;;;;;;4228881;28;19911;-60
2022/10/07 03:52:55;;;;;;;;;;;7.60;99.90;;;;;;4226567;28;19912;-63
2022/10/07 03:54:56;;;;;;;;;;;7.60;99.90;;;;;;4226926;28;19912;-62
2022/10/07 03:56:57;;;;;;;;;;;7.60;99.90;;;;;;4228677;28;19999;-63
2022/10/07 03:58:58;;;;;;;;;;;7.50;99.90;;;;;;4229681;27;19912;-63
2022/10/07 04:01:03;;;;;;;;;;;7.50;99.90;;;;;;4232373;27;19928;-61
2022/10/07 04:03:06;;;;;;;;;;;7.50;99.90;;;;;;4228808;27;19981;-62
2022/10/07 04:05:07;;;;;;;;;;;7.40;99.90;;;;;;4229214;28;19961;-66
2022/10/07 04:07:08;;;;;;;;;;;7.40;99.90;;;;;;4227637;28;19972;-64
2022/10/07 04:09:12;;;;;;;;;;;7.40;99.90;;;;;;4233881;27;20027;-62
2022/10/07 04:11:13;;;;;;;;;;;7.30;99.90;;;;;;4226961;27;19961;-62
2022/10/07 04:13:14;;;;;;;;;;;7.30;99.90;;;;;;4239346;27;19915;-62
2022/10/07 04:15:15;;;;;;;;;;;7.30;99.90;;;;;;4228207;27;20032;-64
2022/10/07 04:17:20;;;;;;;;;;;7.20;99.90;;;;;;4228356;28;20519;-62
2022/10/07 04:19:21;;;;;;;;;;;7.20;99.90;;;;;;4226866;28;19908;-62
2022/10/07 04:21:22;;;;;;;;;;;7.20;99.90;;;;;;4228130;28;20268;-61
2022/10/07 04:23:23;;;;;;;;;;;7.10;99.90;;;;;;4226811;28;20051;-62
2022/10/07 04:25:33;;;;;;;;;;;7.10;99.90;;;;;;4227898;28;19970;-61
2022/10/07 04:27:34;;;;;;;;;;;7.10;99.90;;;;;;4227532;28;20321;-62
2022/10/07 04:29:35;;;;;;;;;;;7.10;99.90;;;;;;4227726;28;19919;-61
2022/10/07 04:31:36;;;;;;;;;;;7.10;99.90;;;;;;4226370;28;19911;-61
2022/10/07 04:33:38;;;;;;;;;;;7.10;99.90;;;;;;4227637;28;20321;-63
2022/10/07 04:35:39;;;;;;;;;;;7.10;99.90;;;;;;4228241;28;19934;-62
2022/10/07 04:37:42;;;;;;;;;;;7.10;99.90;;;;;;4226411;28;19953;-61
2022/10/07 04:39:42;;;;;;;;;;;7.10;99.90;;;;;;4228550;28;19915;-63
2022/10/07 04:41:43;;;;;;;;;;;7.00;99.90;;;;;;4227228;28;19920;-63
2022/10/07 04:43:48;;;;;;;;;;;7.00;99.90;;;;;;4228282;28;19912;-62
2022/10/07 04:45:53;;;;;;;;;;;7.00;99.90;;;;;;4227271;28;19912;-62
2022/10/07 04:47:54;;;;;;;;;;;7.00;99.90;;;;;;4228305;28;19938;-63
2022/10/07 04:49:55;;;;;;;;;;;7.00;99.90;;;;;;4227269;28;19907;-62
2022/10/07 04:51:56;;;;;;;;;;;7.00;99.90;;;;;;4218334;28;20421;-62
2022/10/07 04:53:57;;;;;;;;;;;7.10;99.90;;;;;;4210313;28;19912;-63
2022/10/07 04:55:59;;;;;;;;;;;7.20;99.90;;;;;;4211275;28;20318;-62
2022/10/07 04:58:00;;;;;;;;;;;7.20;99.90;;;;;;4216060;28;19961;-62
2022/10/07 05:00:01;;;;;;;;;;;7.30;99.90;;;;;;4226632;28;20339;-65
2022/10/07 05:02:01;;;;;;;;;;;7.40;99.90;;;;;;4227897;28;19916;-63
2022/10/07 05:04:02;;;;;;;;;;;7.40;99.90;;;;;;4227254;28;19912;-63
2022/10/07 05:06:04;;;;;;;;;;;7.50;99.90;;;;;;4227565;28;20356;-63
2022/10/07 05:08:06;;;;;;;;;;;7.60;99.90;;;;;;4226175;28;19957;-61
2022/10/07 05:10:07;;;;;;;;;;;7.70;99.90;;;;;;4227248;28;19919;-60
2022/10/07 05:12:08;;;;;;;;;;;7.80;99.90;;;;;;4229145;28;19911;-61
2022/10/07 05:14:09;;;;;;;;;;;7.90;99.90;;;;;;4231133;28;20363;-62
2022/10/07 05:16:10;;;;;;;;;;;7.90;99.90;;;;;;4229798;28;19912;-62
2022/10/07 05:18:11;;;;;;;;;;;7.90;99.90;;;;;;4231138;28;19912;-63
2022/10/07 05:20:12;;;;;;;;;;;8.00;99.90;;;;;;4228979;28;19915;-63
2022/10/07 05:22:13;;;;;;;;;;;8.00;99.90;;;;;;4230360;28;19908;-61
2022/10/07 05:24:14;;;;;;;;;;;8.00;99.90;;;;;;4228986;28;19911;-62
2022/10/07 05:26:15;;;;;;;;;;;8.10;99.90;;;;;;4231118;28;19914;-62
2022/10/07 05:28:17;;;;;;;;;;;8.20;99.90;;;;;;4230024;28;20221;-61
2022/10/07 05:30:18;;;;;;;;;;;8.20;99.90;;;;;;4230672;28;20432;-61
2022/10/07 05:32:20;;;;;;;;;;;8.30;99.90;;;;;;4229876;28;19965;-61
2022/10/07 05:34:21;;;;;;;;;;;8.50;99.90;;;;;;4230167;28;19912;-62
2022/10/07 05:36:22;;;;;;;;;;;8.60;99.90;;;;;;4229594;27;19915;-63
2022/10/07 05:38:23;;;;;;;;;;;8.70;99.90;;;;;;4230335;28;19912;-62
2022/10/07 05:40:24;;;;;;;;;;;8.80;99.90;;;;;;4230995;28;20391;-62
2022/10/07 05:42:25;;;;;;;;;;;8.80;99.90;;;;;;4228984;28;19912;-62
2022/10/07 05:44:26;;;;;;;;;;;8.90;99.90;;;;;;4230163;27;19958;-61
2022/10/07 05:46:27;;;;;;;;;;;9.00;99.90;;;;;;4230022;28;19911;-61
2022/10/07 05:48:29;;;;;;;;;;;9.10;99.90;;;;;;4230903;28;19912;-61
2022/10/07 05:50:30;;;;;;;;;;;9.20;99.90;;;;;;4229950;28;20433;-61
2022/10/07 05:52:31;;;;;;;;;;;9.40;99.90;;;;;;4229713;28;19908;-62
2022/10/07 05:54:32;;;;;;;;;;;9.50;99.90;;;;;;4229880;28;20278;-61
2022/10/07 05:56:35;;;;;;;;;;;9.70;99.90;;;;;;4230957;28;19953;-62
2022/10/07 05:58:37;;;;;;;;;;;9.90;99.90;;;;;;4229853;28;19908;-61
2022/10/07 06:00:41;;;;;;;;;;;10.10;99.90;;;;;;4230293;28;19919;-61
2022/10/07 06:02:42;;;;;;;;;;;10.40;99.90;;;;;;4229663;27;19956;-60
2022/10/07 06:04:44;;;;;;;;;;;10.60;99.90;;;;;;4230284;28;20334;-62
2022/10/07 06:06:45;;;;;;;;;;;10.70;99.90;;;;;;4230645;28;19908;-62
2022/10/07 06:08:47;;;;;;;;;;;10.60;99.90;;;;;;4230126;28;19914;-61
2022/10/07 06:13:07;;;;;;;;;;;10.80;99.90;;;;;;4229901;28;19964;-61
2022/10/07 06:15:09;;;;;;;;;;;10.80;99.90;;;;;;4230208;28;19908;-62
2022/10/07 06:17:10;;;;;;;;;;;10.80;99.90;;;;;;4229571;28;20268;-60
2022/10/07 06:19:21;;;;;;;;;;;10.80;99.90;;;;;;4230715;28;19919;-62
2022/10/07 06:21:25;;;;;;;;;;;10.80;99.90;;;;;;4229350;28;19919;-61
2022/10/07 06:23:27;;;;;;;;;;;10.90;99.90;;;;;;4230021;28;20445;-62
2022/10/07 06:25:27;;;;;;;;;;;11.00;99.90;;;;;;4229645;27;19916;-62
2022/10/07 06:27:28;;;;;;;;;;;11.00;99.90;;;;;;4230583;28;19919;-61
2022/10/07 06:29:29;;;;;;;;;;;11.20;99.90;;;;;;4229656;27;20333;-61
2022/10/07 06:31:31;;;;;;;;;;;11.30;99.90;;;;;;4229197;27;20468;-62
2022/10/07 06:33:32;;;;;;;;;;;11.30;99.90;;;;;;4228887;28;19912;-61
2022/10/07 06:35:33;;;;;;;;;;;11.30;99.90;;;;;;4230697;28;20332;-62
2022/10/07 06:37:34;;;;;;;;;;;11.20;99.90;;;;;;4229644;28;19907;-62
2022/10/07 06:39:35;;;;;;;;;;;11.10;99.90;;;;;;4230094;28;19973;-62
2022/10/07 06:41:36;;;;;;;;;;;10.90;99.90;;;;;;4229417;28;20452;-63
2022/10/07 06:43:37;;;;;;;;;;;10.80;99.90;;;;;;4229977;27;19920;-62
2022/10/07 06:45:37;;;;;;;;;;;10.60;99.90;;;;;;4228357;28;19919;-61
2022/10/07 06:47:38;;;;;;;;;;;10.60;99.90;;;;;;4229298;28;19951;-61
2022/10/07 06:49:39;;;;;;;;;;;10.50;99.90;;;;;;4229879;28;19908;-62
2022/10/07 06:51:40;;;;;;;;;;;10.40;99.90;;;;;;4228988;28;19907;-60
2022/10/07 06:53:41;;;;;;;;;;;10.30;99.90;;;;;;4230154;28;19915;-61
2022/10/07 06:55:42;;;;;;;;;;;10.30;99.90;;;;;;4229143;28;19907;-62
2022/10/07 06:57:44;;;;;;;;;;;10.20;99.90;;;;;;4230135;28;20296;-62
2022/10/07 06:59:45;;;;;;;;;;;10.10;99.90;;;;;;4228837;28;20304;-62
2022/10/07 07:01:45;;;;;;;;;;;10.20;99.90;;;;;;4228662;28;20334;-63
2022/10/07 07:03:46;;;;;;;;;;;10.20;99.90;;;;;;4229032;27;19920;-61
2022/10/07 07:05:48;;;;;;;;;;;10.20;99.90;;;;;;4229829;28;20229;-62
2022/10/07 07:07:48;;;;;;;;;;;10.30;99.90;;;;;;4229251;28;19953;-61
2022/10/07 07:09:50;;;;;;;;;;;10.40;99.90;;;;;;4229986;27;19908;-61
2022/10/07 07:11:51;;;;;;;;;;;10.50;99.90;;;;;;4228996;28;20329;-62
2022/10/07 07:13:53;;;;;;;;;;;10.70;99.90;;;;;;4229483;27;20352;-62
2022/10/07 07:15:54;;;;;;;;;;;10.90;99.90;;;;;;4229386;27;20040;-62
2022/10/07 07:17:55;;;;;;;;;;;11.10;99.90;;;;;;4228782;27;19923;-61
2022/10/07 07:19:56;;;;;;;;;;;11.30;99.90;;;;;;4229326;28;20329;-63
2022/10/07 07:21:57;;;;;;;;;;;11.40;99.90;;;;;;4228123;28;19915;-64
2022/10/07 07:23:58;;;;;;;;;;;11.60;99.90;;;;;;4229384;28;20321;-63
2022/10/07 07:25:59;;;;;;;;;;;11.80;99.90;;;;;;4228517;28;19933;-63
2022/10/07 07:28:01;;;;;;;;;;;11.90;99.90;;;;;;4228389;27;19912;-62
2022/10/07 07:30:03;;;;;;;;;;;12.00;99.90;;;;;;4228238;28;20322;-62
2022/10/07 07:32:05;;;;;;;;;;;11.90;99.90;;;;;;4229749;28;20352;-63
2022/10/07 07:34:10;;;;;;;;;;;11.90;99.90;;;;;;4227285;28;19912;-62
2022/10/07 07:36:14;;;;;;;;;;;12.10;99.90;;;;;;4229327;28;19944;-62
2022/10/07 07:38:15;;;;;;;;;;;12.30;99.90;;;;;;4228603;28;19996;-63
2022/10/07 07:40:16;;;;;;;;;;;12.40;99.90;;;;;;4229461;27;19911;-62
2022/10/07 07:42:17;;;;;;;;;;;12.40;99.90;;;;;;4228094;28;20286;-64
2022/10/07 07:44:19;;;;;;;;;;;12.60;99.90;;;;;;4228858;28;19907;-62
2022/10/07 07:46:21;;;;;;;;;;;12.70;99.90;;;;;;4228222;28;19908;-63
2022/10/07 07:48:22;;;;;;;;;;;12.80;99.90;;;;;;4228395;28;19912;-62
2022/10/07 07:50:25;;;;;;;;;;;12.90;99.90;;;;;;4228722;28;20088;-63
2022/10/07 07:52:26;;;;;;;;;;;12.90;99.90;;;;;;4228311;28;20344;-63
2022/10/07 07:54:27;;;;;;;;;;;12.90;99.90;;;;;;4228834;28;19912;-62
2022/10/07 07:56:30;;;;;;;;;;;13.00;99.90;;;;;;4227831;28;19941;-61
2022/10/07 07:58:32;;;;;;;;;;;12.90;99.90;;;;;;4229238;28;19912;-62
2022/10/07 08:00:34;;;;;;;;;;;12.90;99.90;;;;;;4226711;28;20036;-61
2022/10/07 08:02:34;;;;;;;;;;;12.90;99.90;;;;;;4228729;28;19915;-61
2022/10/07 08:04:35;;;;;;;;;;;12.90;99.90;;;;;;4227824;28;19915;-63
2022/10/07 08:06:36;;;;;;;;;;;13.00;99.90;;;;;;4229088;27;20340;-61
2022/10/07 08:08:37;;;;;;;;;;;13.10;99.90;;;;;;4227931;28;19908;-61
2022/10/07 08:10:41;;;;;;;;;;;13.20;99.90;;;;;;4228594;28;19912;-62
2022/10/07 08:12:42;;;;;;;;;;;13.20;99.90;;;;;;4227556;28;19970;-62
2022/10/07 08:14:43;;;;;;;;;;;13.20;99.90;;;;;;4228419;28;19911;-64
2022/10/07 08:16:44;;;;;;;;;;;13.20;99.90;;;;;;4227626;28;19904;-62
2022/10/07 08:18:47;;;;;;;;;;;13.40;99.90;;;;;;4227861;28;19965;-61
2022/10/07 08:20:55;;;;;;;;;;;13.50;99.90;;;;;;4227761;28;19934;-61
2022/10/07 08:22:58;;;;;;;;;;;13.60;99.90;;;;;;4227572;28;20314;-60
2022/10/07 08:24:59;;;;;;;;;;;13.60;99.90;;;;;;4228143;28;19916;-62
2022/10/07 08:27:00;;;;;;;;;;;13.70;99.90;;;;;;4227585;28;20322;-61
2022/10/07 08:29:02;;;;;;;;;;;13.70;99.90;;;;;;4228316;28;19908;-60
2022/10/07 08:31:04;;;;;;;;;;;13.80;99.90;;;;;;4227341;28;19911;-62
2022/10/07 08:33:05;;;;;;;;;;;13.90;99.90;;;;;;4228419;28;19908;-62
2022/10/07 08:35:06;;;;;;;;;;;14.10;99.90;;;;;;4227565;28;20288;-61
2022/10/07 08:37:06;;;;;;;;;;;14.20;99.90;;;;;;4228715;28;19907;-63
2022/10/07 08:39:08;;;;;;;;;;;14.40;99.90;;;;;;4227258;28;19911;-62
2022/10/07 08:41:21;;;;;;;;;;;14.40;99.90;;;;;;4228176;28;19961;-62
2022/10/07 08:43:23;;;;;;;;;;;14.70;99.90;;;;;;4227273;28;19953;-62
2022/10/07 08:45:30;;;;;;;;;;;14.80;99.90;;;;;;4226923;28;19961;-62
2022/10/07 08:47:42;;;;;;;;;;;14.90;99.90;;;;;;4227175;28;19980;-63
2022/10/07 08:50:03;;;;;;;;;;;14.80;99.90;;;;;;4228164;28;19911;-63
2022/10/07 08:52:14;;;;;;;;;;;14.90;99.90;;;;;;4227056;28;19977;-62
2022/10/07 08:54:15;;;;;;;;;;;15.10;99.90;;;;;;4228161;28;20360;-62
2022/10/07 08:56:18;;;;;;;;;;;15.20;99.90;;;;;;4227093;28;19911;-63
2022/10/07 08:58:39;;;;;;;;;;;15.20;99.90;;;;;;4228351;28;19957;-62
2022/10/07 09:00:46;;;;;;;;;;;15.30;99.90;;;;;;4227213;28;19928;-64
2022/10/07 09:03:13;;;;;;;;;;;15.40;99.90;;;;;;4228270;28;19924;-62
2022/10/07 09:05:22;;;;;;;;;;;15.60;99.90;;;;;;4226027;28;20399;-64
2022/10/07 09:07:23;;;;;;;;;;;15.80;99.90;;;;;;4228580;28;20743;-62
2022/10/07 09:09:27;;;;;;;;;;;15.90;99.90;;;;;;4227272;28;19911;-62
2022/10/07 09:11:29;;;;;;;;;;;16.00;99.90;;;;;;4228066;28;19934;-63
2022/10/07 09:13:33;;;;;;;;;;;16.10;99.90;;;;;;4226994;28;19977;-62
2022/10/07 09:15:40;;;;;;;;;;;16.20;99.90;;;;;;4228030;28;19957;-62
2022/10/07 09:17:47;;;;;;;;;;;16.30;99.90;;;;;;4226813;28;19912;-62
2022/10/07 09:19:51;;;;;;;;;;;16.40;99.90;;;;;;4227133;28;19912;-63
2022/10/07 09:21:56;;;;;;;;;;;16.50;99.90;;;;;;4227149;28;19920;-63
2022/10/07 09:24:01;;;;;;;;;;;16.60;99.90;;;;;;4227759;28;19911;-62
2022/10/07 09:26:10;;;;;;;;;;;16.60;99.90;;;;;;4226992;28;19908;-61
2022/10/07 09:28:12;;;;;;;;;;;16.70;99.90;;;;;;4227612;28;20035;-61
2022/10/07 09:30:14;;;;;;;;;;;16.70;99.90;;;;;;4227203;28;19907;-63
2022/10/07 09:32:16;;;;;;;;;;;16.80;99.90;;;;;;4227418;28;20318;-61
2022/10/07 09:34:21;;;;;;;;;;;16.80;99.90;;;;;;4227187;28;19965;-63
2022/10/07 09:36:22;;;;;;;;;;;16.90;99.90;;;;;;4227286;28;20306;-61
2022/10/07 09:38:30;;;;;;;;;;;17.10;99.90;;;;;;4228001;28;20397;-62
2022/10/07 09:41:13;;;;;;;;;;;17.10;99.90;;;;;;4226800;28;19965;-62
2022/10/07 09:42:58;;;;;;;;;;;17.30;99.90;;;;;;4227205;28;19919;-62
2022/10/07 09:45:01;;;;;;;;;;;17.50;99.90;;;;;;4226706;28;19907;-63
2022/10/07 09:47:12;;;;;;;;;;;17.60;99.90;;;;;;4227562;28;19911;-63
2022/10/07 09:49:25;;;;;;;;;;;17.70;99.90;;;;;;4226678;28;19969;-62
2022/10/07 09:51:28;;;;;;;;;;;17.70;99.90;;;;;;4227524;28;20437;-63
2022/10/07 09:53:29;;;;;;;;;;;17.50;99.90;;;;;;4226782;28;19953;-62
2022/10/07 09:55:40;;;;;;;;;;;17.60;99.90;;;;;;4227618;28;19953;-62
2022/10/07 09:57:41;;;;;;;;;;;17.70;99.90;;;;;;4228023;28;19911;-63
2022/10/07 09:59:42;;;;;;;;;;;17.90;99.90;;;;;;4230592;28;19956;-61
2022/10/07 10:01:49;;;;;;;;;;;18.00;99.90;;;;;;4228604;27;19951;-62
2022/10/07 10:03:56;;;;;;;;;;;18.00;99.90;;;;;;4230688;28;19916;-61
2022/10/07 10:06:05;;;;;;;;;;;18.20;99.90;;;;;;4229719;28;19915;-60
2022/10/07 10:08:20;;;;;;;;;;;18.10;99.90;;;;;;4231058;28;19913;-61
2022/10/07 10:10:22;;;;;;;;;;;18.10;99.90;;;;;;4229653;28;19965;-61
2022/10/07 10:12:24;;;;;;;;;;;18.20;99.90;;;;;;4230969;28;20421;-60
2022/10/07 10:14:26;;;;;;;;;;;18.40;99.90;;;;;;4229596;28;19908;-61
2022/10/07 10:16:29;;;;;;;;;;;18.50;99.90;;;;;;4230846;28;20764;-60
2022/10/07 10:18:37;;;;;;;;;;;18.70;99.90;;;;;;4229118;28;20282;-63
2022/10/07 10:20:42;;;;;;;;;;;18.80;99.90;;;;;;4230200;28;19953;-61
2022/10/07 10:22:43;;;;;;;;;;;18.70;99.90;;;;;;4229216;28;19920;-60
2022/10/07 10:27:11;;;;;;;;;;;18.80;99.90;;;;;;4229410;28;19954;-61
2022/10/07 10:29:36;;;;;;;;;;;19.00;99.90;;;;;;4230455;28;19912;-62
2022/10/07 10:31:55;;;;;;;;;;;19.10;99.90;;;;;;4220646;28;19912;-63
2022/10/07 10:34:14;;;;;;;;;;;19.40;99.90;;;;;;4230199;28;19961;-61
2022/10/07 10:36:20;;;;;;;;;;;19.60;99.90;;;;;;4228523;28;19960;-61
2022/10/07 10:38:27;;;;;;;;;;;19.80;99.90;;;;;;4230478;28;19973;-61
2022/10/07 10:40:54;;;;;;;;;;;20.00;99.90;;;;;;4228819;28;19957;-62
2022/10/07 10:42:58;;;;;;;;;;;20.10;99.90;;;;;;4224649;28;19916;-62
2022/10/07 10:45:08;;;;;;;;;;;20.20;99.90;;;;;;4227656;27;19961;-63
2022/10/07 10:47:11;;;;;;;;;;;20.30;99.90;;;;;;4228848;27;19957;-62
2022/10/07 10:49:15;;;;;;;;;;;20.30;99.90;;;;;;4228857;28;19908;-63
2022/10/07 10:51:16;;;;;;;;;;;20.30;99.90;;;;;;4230516;27;19968;-63
2022/10/07 10:53:35;;;;;;;;;;;20.30;99.60;;;;;;4229054;28;19908;-61
2022/10/07 10:55:48;;;;;;;;;;;20.10;99.70;;;;;;4230058;28;19912;-63
2022/10/07 10:58:08;;;;;;;;;;;20.20;99.90;;;;;;4228707;28;19937;-61
2022/10/07 11:00:13;;;;;;;;;;;20.10;98.60;;;;;;4229798;28;19933;-62
2022/10/07 11:02:46;;;;;;;;;;;20.10;99.20;;;;;;4228092;28;20213;-62
2022/10/07 11:04:49;;;;;;;;;;;20.20;99.90;;;;;;4215976;28;19961;-61
2022/10/07 11:06:52;;;;;;;;;;;20.30;99.30;;;;;;4228536;27;20287;-60
2022/10/07 11:08:54;;;;;;;;;;;20.20;99.50;;;;;;4229990;28;19908;-61
2022/10/07 11:11:05;;;;;;;;;;;20.30;99.30;;;;;;4228683;28;19912;-61
2022/10/07 11:13:12;;;;;;;;;;;20.20;99.10;;;;;;4229671;28;20364;-62
2022/10/07 11:15:13;;;;;;;;;;;20.10;99.30;;;;;;4228565;28;19932;-62
2022/10/07 11:17:14;;;;;;;;;;;20.20;98.70;;;;;;4229457;28;19908;-63
2022/10/07 11:19:19;;;;;;;;;;;20.20;99.20;;;;;;4228315;27;20301;-63
2022/10/07 11:21:43;;;;;;;;;;;20.20;99.00;;;;;;4229525;27;19915;-62
2022/10/07 11:23:54;;;;;;;;;;;20.20;99.20;;;;;;4228295;28;19921;-62
2022/10/07 11:26:01;;;;;;;;;;;20.40;99.40;;;;;;4229156;28;19908;-61
2022/10/07 11:28:07;;;;;;;;;;;20.40;99.10;;;;;;4226347;28;19915;-62
2022/10/07 11:30:10;;;;;;;;;;;20.40;98.00;;;;;;4228131;27;19908;-63
2022/10/07 11:32:12;;;;;;;;;;;20.50;98.70;;;;;;4228174;28;19941;-63
2022/10/07 11:34:17;;;;;;;;;;;20.40;98.50;;;;;;4229244;28;20536;-64
2022/10/07 11:36:23;;;;;;;;;;;20.30;98.40;;;;;;4228016;28;20375;-62
2022/10/07 11:38:28;;;;;;;;;;;20.10;98.20;;;;;;4229604;28;19933;-61
2022/10/07 11:40:30;;;;;;;;;;;20.00;98.60;;;;;;4228391;27;19911;-63
2022/10/07 11:42:39;;;;;;;;;;;20.00;98.60;;;;;;4228913;28;19916;-62
2022/10/07 11:45:02;;;;;;;;;;;20.00;98.60;;;;;;4226803;27;19908;-62
2022/10/07 11:47:05;;;;;;;;;;;20.00;98.40;;;;;;4229203;28;19908;-62
2022/10/07 11:49:10;;;;;;;;;;;20.10;99.00;;;;;;4227281;28;20359;-62
2022/10/07 11:51:18;;;;;;;;;;;20.10;98.80;;;;;;4228722;28;19912;-61
2022/10/07 11:53:21;;;;;;;;;;;20.10;98.20;;;;;;4227745;28;19960;-61
2022/10/07 11:55:24;;;;;;;;;;;20.10;98.10;;;;;;4227357;28;19911;-62
2022/10/07 11:57:30;;;;;;;;;;;20.10;98.00;;;;;;4227967;28;19908;-62
2022/10/07 11:59:39;;;;;;;;;;;20.10;98.20;;;;;;4227007;28;19915;-61
2022/10/07 12:01:46;;;;;;;;;;;20.00;98.00;;;;;;4227737;28;19931;-62
2022/10/07 12:03:47;;;;;;;;;;;20.10;98.10;;;;;;4228135;28;19957;-65
2022/10/07 12:05:48;;;;;;;;;;;20.10;98.50;;;;;;4228229;28;19908;-62
2022/10/07 12:07:57;;;;;;;;;;;20.20;98.90;;;;;;4228520;28;19913;-64
2022/10/07 12:09:58;;;;;;;;;;;20.30;98.30;;;;;;4228476;27;19911;-63
2022/10/07 12:11:59;;;;;;;;;;;20.40;98.40;;;;;;4227682;28;19919;-64